sensor_id;sensor_type;location;lat;lon;timestamp;P1;durP1;ratioP1;P2;durP2;ratioP2
19863;SDS011;10094;48.820;9.226;2023-09-08T00:06:25;9.00;;;7.47;;
19863;SDS011;10094;48.820;9.226;2023-09-08T00:13:07;8.98;;;7.85;;
19863;SDS011;10094;48.820;9.226;2023-09-08T00:19:48;13.27;;;9.40;;
19863;SDS011;10094;48.820;9.226;2023-09-08T00:26:32;11.13;;;9.07;;
19863;SDS011;10094;48.820;9.226;2023-09-08T00:33:14;12.85;;;8.60;;
19863;SDS011;10094;48.820;9.226;2023-09-08T00:39:56;10.00;;;8.65;;
19863;SDS011;10094;48.820;9.226;2023-09-08T00:46:37;11.32;;;8.77;;
19863;SDS011;10094;48.820;9.226;2023-09-08T00:53:20;12.52;;;8.68;;
19863;SDS011;10094;48.820;9.226;2023-09-08T01:00:02;10.75;;;8.07;;
19863;SDS011;10094;48.820;9.226;2023-09-08T01:06:47;9.73;;;8.73;;
19863;SDS011;10094;48.820;9.226;2023-09-08T01:13:30;10.27;;;7.97;;
19863;SDS011;10094;48.820;9.226;2023-09-08T01:20:13;8.38;;;7.47;;
19863;SDS011;10094;48.820;9.226;2023-09-08T01:27:02;9.93;;;8.40;;
19863;SDS011;10094;48.820;9.226;2023-09-08T01:33:44;9.65;;;7.88;;
19863;SDS011;10094;48.820;9.226;2023-09-08T01:40:27;9.07;;;7.95;;
19863;SDS011;10094;48.820;9.226;2023-09-08T01:47:09;9.80;;;8.55;;
19863;SDS011;10094;48.820;9.226;2023-09-08T01:53:50;10.60;;;8.38;;
19863;SDS011;10094;48.820;9.226;2023-09-08T02:00:32;13.00;;;9.18;;
19863;SDS011;10094;48.820;9.226;2023-09-08T02:07:14;9.95;;;9.02;;
19863;SDS011;10094;48.820;9.226;2023-09-08T02:13:55;13.00;;;8.90;;
19863;SDS011;10094;48.820;9.226;2023-09-08T02:20:39;11.07;;;8.93;;
19863;SDS011;10094;48.820;9.226;2023-09-08T02:27:21;9.07;;;8.05;;
19863;SDS011;10094;48.820;9.226;2023-09-08T02:34:05;14.25;;;10.18;;
19863;SDS011;10094;48.820;9.226;2023-09-08T02:40:47;10.10;;;8.93;;
19863;SDS011;10094;48.820;9.226;2023-09-08T02:47:28;10.32;;;9.32;;
19863;SDS011;10094;48.820;9.226;2023-09-08T02:54:12;10.60;;;9.35;;
19863;SDS011;10094;48.820;9.226;2023-09-08T03:00:54;11.02;;;9.93;;
19863;SDS011;10094;48.820;9.226;2023-09-08T03:07:36;10.60;;;9.32;;
19863;SDS011;10094;48.820;9.226;2023-09-08T03:14:18;13.88;;;9.75;;
19863;SDS011;10094;48.820;9.226;2023-09-08T03:21:00;15.48;;;10.77;;
19863;SDS011;10094;48.820;9.226;2023-09-08T03:27:44;12.63;;;10.05;;
19863;SDS011;10094;48.820;9.226;2023-09-08T03:34:26;12.18;;;10.38;;
19863;SDS011;10094;48.820;9.226;2023-09-08T03:41:08;13.38;;;9.85;;
19863;SDS011;10094;48.820;9.226;2023-09-08T03:47:49;11.45;;;9.80;;
19863;SDS011;10094;48.820;9.226;2023-09-08T03:54:32;10.85;;;9.75;;
19863;SDS011;10094;48.820;9.226;2023-09-08T04:01:14;11.40;;;10.20;;
19863;SDS011;10094;48.820;9.226;2023-09-08T04:07:56;11.90;;;9.90;;
19863;SDS011;10094;48.820;9.226;2023-09-08T04:14:38;12.60;;;10.43;;
19863;SDS011;10094;48.820;9.226;2023-09-08T04:21:20;11.30;;;10.10;;
19863;SDS011;10094;48.820;9.226;2023-09-08T04:28:02;13.13;;;11.07;;
19863;SDS011;10094;48.820;9.226;2023-09-08T04:34:44;14.23;;;9.85;;
19863;SDS011;10094;48.820;9.226;2023-09-08T04:41:26;18.35;;;10.90;;
19863;SDS011;10094;48.820;9.226;2023-09-08T04:48:09;13.85;;;10.38;;
19863;SDS011;10094;48.820;9.226;2023-09-08T04:54:51;15.18;;;11.63;;
19863;SDS011;10094;48.820;9.226;2023-09-08T05:01:33;11.32;;;10.20;;
19863;SDS011;10094;48.820;9.226;2023-09-08T05:08:18;14.88;;;10.57;;
19863;SDS011;10094;48.820;9.226;2023-09-08T05:15:00;13.88;;;10.57;;
19863;SDS011;10094;48.820;9.226;2023-09-08T05:21:50;12.73;;;10.00;;
19863;SDS011;10094;48.820;9.226;2023-09-08T05:28:33;12.77;;;10.27;;
19863;SDS011;10094;48.820;9.226;2023-09-08T05:35:20;15.85;;;11.07;;
19863;SDS011;10094;48.820;9.226;2023-09-08T05:42:03;11.75;;;9.73;;
19863;SDS011;10094;48.820;9.226;2023-09-08T05:48:45;11.88;;;9.30;;
19863;SDS011;10094;48.820;9.226;2023-09-08T05:55:28;11.35;;;9.63;;
19863;SDS011;10094;48.820;9.226;2023-09-08T06:02:10;10.68;;;9.32;;
19863;SDS011;10094;48.820;9.226;2023-09-08T06:08:52;12.70;;;8.63;;
19863;SDS011;10094;48.820;9.226;2023-09-08T06:15:34;13.43;;;8.93;;
19863;SDS011;10094;48.820;9.226;2023-09-08T06:22:16;10.35;;;7.63;;
19863;SDS011;10094;48.820;9.226;2023-09-08T06:28:58;12.35;;;7.63;;
19863;SDS011;10094;48.820;9.226;2023-09-08T06:35:40;8.93;;;7.20;;
19863;SDS011;10094;48.820;9.226;2023-09-08T06:42:22;7.65;;;6.88;;
19863;SDS011;10094;48.820;9.226;2023-09-08T06:49:11;9.88;;;7.40;;
19863;SDS011;10094;48.820;9.226;2023-09-08T06:55:53;10.65;;;7.30;;
19863;SDS011;10094;48.820;9.226;2023-09-08T07:02:35;6.90;;;6.20;;
19863;SDS011;10094;48.820;9.226;2023-09-08T07:09:17;10.18;;;6.80;;
19863;SDS011;10094;48.820;9.226;2023-09-08T07:15:59;6.75;;;6.18;;
19863;SDS011;10094;48.820;9.226;2023-09-08T07:22:41;8.70;;;6.70;;
19863;SDS011;10094;48.820;9.226;2023-09-08T07:29:24;9.65;;;6.13;;
19863;SDS011;10094;48.820;9.226;2023-09-08T07:36:07;8.35;;;6.68;;
19863;SDS011;10094;48.820;9.226;2023-09-08T07:42:51;9.98;;;6.65;;
19863;SDS011;10094;48.820;9.226;2023-09-08T07:49:33;9.05;;;6.80;;
19863;SDS011;10094;48.820;9.226;2023-09-08T07:56:15;7.70;;;6.80;;
19863;SDS011;10094;48.820;9.226;2023-09-08T08:02:57;7.97;;;6.68;;
19863;SDS011;10094;48.820;9.226;2023-09-08T08:09:39;9.63;;;6.82;;
19863;SDS011;10094;48.820;9.226;2023-09-08T08:16:21;8.02;;;6.63;;
19863;SDS011;10094;48.820;9.226;2023-09-08T08:23:03;8.20;;;6.43;;
19863;SDS011;10094;48.820;9.226;2023-09-08T08:29:45;7.28;;;6.47;;
19863;SDS011;10094;48.820;9.226;2023-09-08T08:36:27;8.23;;;6.88;;
19863;SDS011;10094;48.820;9.226;2023-09-08T08:43:10;5.88;;;5.38;;
19863;SDS011;10094;48.820;9.226;2023-09-08T08:49:51;7.63;;;6.38;;
19863;SDS011;10094;48.820;9.226;2023-09-08T08:56:36;6.88;;;6.13;;
19863;SDS011;10094;48.820;9.226;2023-09-08T09:03:18;8.48;;;6.25;;
19863;SDS011;10094;48.820;9.226;2023-09-08T09:10:01;8.43;;;6.15;;
19863;SDS011;10094;48.820;9.226;2023-09-08T09:16:44;6.05;;;5.05;;
19863;SDS011;10094;48.820;9.226;2023-09-08T09:23:30;7.95;;;5.97;;
19863;SDS011;10094;48.820;9.226;2023-09-08T09:30:13;8.25;;;5.50;;
19863;SDS011;10094;48.820;9.226;2023-09-08T09:36:54;7.65;;;5.13;;
19863;SDS011;10094;48.820;9.226;2023-09-08T09:43:36;6.95;;;5.88;;
19863;SDS011;10094;48.820;9.226;2023-09-08T09:50:27;11.27;;;5.95;;
19863;SDS011;10094;48.820;9.226;2023-09-08T09:57:11;5.22;;;4.72;;
19863;SDS011;10094;48.820;9.226;2023-09-08T10:03:54;5.97;;;5.07;;
19863;SDS011;10094;48.820;9.226;2023-09-08T10:10:37;6.78;;;5.50;;
19863;SDS011;10094;48.820;9.226;2023-09-08T10:17:20;6.07;;;5.30;;
19863;SDS011;10094;48.820;9.226;2023-09-08T10:24:14;7.13;;;5.95;;
19863;SDS011;10094;48.820;9.226;2023-09-08T10:30:59;7.15;;;6.43;;
19863;SDS011;10094;48.820;9.226;2023-09-08T10:37:42;7.05;;;5.85;;
19863;SDS011;10094;48.820;9.226;2023-09-08T10:44:23;5.72;;;5.15;;
19863;SDS011;10094;48.820;9.226;2023-09-08T10:51:05;6.15;;;5.63;;
19863;SDS011;10094;48.820;9.226;2023-09-08T10:57:47;6.63;;;5.78;;
19863;SDS011;10094;48.820;9.226;2023-09-08T11:04:29;6.82;;;5.63;;
19863;SDS011;10094;48.820;9.226;2023-09-08T11:11:15;6.15;;;5.35;;
19863;SDS011;10094;48.820;9.226;2023-09-08T11:18:02;7.15;;;5.80;;
19863;SDS011;10094;48.820;9.226;2023-09-08T11:24:46;6.57;;;5.30;;
19863;SDS011;10094;48.820;9.226;2023-09-08T11:31:27;6.70;;;6.00;;
19863;SDS011;10094;48.820;9.226;2023-09-08T11:38:09;7.10;;;5.22;;
19863;SDS011;10094;48.820;9.226;2023-09-08T11:44:51;6.32;;;5.55;;
19863;SDS011;10094;48.820;9.226;2023-09-08T11:51:34;7.38;;;5.55;;
19863;SDS011;10094;48.820;9.226;2023-09-08T11:58:17;10.10;;;5.50;;
19863;SDS011;10094;48.820;9.226;2023-09-08T12:04:59;5.68;;;5.18;;
19863;SDS011;10094;48.820;9.226;2023-09-08T12:11:41;6.45;;;5.20;;
19863;SDS011;10094;48.820;9.226;2023-09-08T12:18:37;5.82;;;5.10;;
19863;SDS011;10094;48.820;9.226;2023-09-08T12:25:20;6.07;;;5.47;;
19863;SDS011;10094;48.820;9.226;2023-09-08T12:32:01;6.47;;;5.57;;
19863;SDS011;10094;48.820;9.226;2023-09-08T12:38:50;6.57;;;5.30;;
19863;SDS011;10094;48.820;9.226;2023-09-08T12:45:33;8.30;;;5.40;;
19863;SDS011;10094;48.820;9.226;2023-09-08T12:52:14;7.63;;;6.28;;
19863;SDS011;10094;48.820;9.226;2023-09-08T12:58:56;6.70;;;5.75;;
19863;SDS011;10094;48.820;9.226;2023-09-08T13:05:38;8.07;;;5.60;;
19863;SDS011;10094;48.820;9.226;2023-09-08T13:12:21;5.85;;;5.20;;
19863;SDS011;10094;48.820;9.226;2023-09-08T13:19:03;6.50;;;5.00;;
19863;SDS011;10094;48.820;9.226;2023-09-08T13:25:46;6.38;;;5.57;;
19863;SDS011;10094;48.820;9.226;2023-09-08T13:32:27;9.45;;;4.90;;
19863;SDS011;10094;48.820;9.226;2023-09-08T13:39:10;5.75;;;5.15;;
19863;SDS011;10094;48.820;9.226;2023-09-08T13:45:51;5.07;;;4.55;;
19863;SDS011;10094;48.820;9.226;2023-09-08T13:52:33;6.57;;;4.85;;
19863;SDS011;10094;48.820;9.226;2023-09-08T13:59:19;6.65;;;5.50;;
19863;SDS011;10094;48.820;9.226;2023-09-08T14:06:07;7.00;;;5.18;;
19863;SDS011;10094;48.820;9.226;2023-09-08T14:12:50;6.18;;;5.28;;
19863;SDS011;10094;48.820;9.226;2023-09-08T14:19:32;7.78;;;5.57;;
19863;SDS011;10094;48.820;9.226;2023-09-08T14:26:13;4.93;;;4.53;;
19863;SDS011;10094;48.820;9.226;2023-09-08T14:32:55;6.07;;;4.60;;
19863;SDS011;10094;48.820;9.226;2023-09-08T14:39:37;5.68;;;5.07;;
19863;SDS011;10094;48.820;9.226;2023-09-08T14:46:19;7.15;;;5.40;;
19863;SDS011;10094;48.820;9.226;2023-09-08T14:53:00;5.80;;;5.20;;
19863;SDS011;10094;48.820;9.226;2023-09-08T14:59:42;5.00;;;4.45;;
19863;SDS011;10094;48.820;9.226;2023-09-08T15:06:24;5.68;;;4.53;;
19863;SDS011;10094;48.820;9.226;2023-09-08T15:13:09;6.68;;;4.72;;
19863;SDS011;10094;48.820;9.226;2023-09-08T15:19:51;5.15;;;4.50;;
19863;SDS011;10094;48.820;9.226;2023-09-08T15:26:32;8.10;;;4.85;;
19863;SDS011;10094;48.820;9.226;2023-09-08T15:33:14;7.60;;;5.20;;
19863;SDS011;10094;48.820;9.226;2023-09-08T15:39:56;4.97;;;4.53;;
19863;SDS011;10094;48.820;9.226;2023-09-08T15:46:38;7.80;;;5.72;;
19863;SDS011;10094;48.820;9.226;2023-09-08T15:53:19;5.30;;;4.70;;
19863;SDS011;10094;48.820;9.226;2023-09-08T16:00:01;5.78;;;4.72;;
19863;SDS011;10094;48.820;9.226;2023-09-08T16:06:49;6.38;;;5.78;;
19863;SDS011;10094;48.820;9.226;2023-09-08T16:13:31;5.35;;;4.85;;
19863;SDS011;10094;48.820;9.226;2023-09-08T16:20:13;5.72;;;4.60;;
19863;SDS011;10094;48.820;9.226;2023-09-08T16:26:55;7.63;;;4.95;;
19863;SDS011;10094;48.820;9.226;2023-09-08T16:33:42;6.10;;;4.72;;
19863;SDS011;10094;48.820;9.226;2023-09-08T16:40:24;6.30;;;4.20;;
19863;SDS011;10094;48.820;9.226;2023-09-08T16:47:07;5.57;;;4.55;;
19863;SDS011;10094;48.820;9.226;2023-09-08T16:53:48;5.50;;;4.53;;
19863;SDS011;10094;48.820;9.226;2023-09-08T17:00:30;6.60;;;4.70;;
19863;SDS011;10094;48.820;9.226;2023-09-08T17:07:12;6.20;;;4.78;;
19863;SDS011;10094;48.820;9.226;2023-09-08T17:13:55;9.45;;;5.20;;
19863;SDS011;10094;48.820;9.226;2023-09-08T17:20:37;6.10;;;5.25;;
19863;SDS011;10094;48.820;9.226;2023-09-08T17:27:19;7.40;;;5.50;;
19863;SDS011;10094;48.820;9.226;2023-09-08T17:34:01;6.53;;;5.72;;
19863;SDS011;10094;48.820;9.226;2023-09-08T17:40:44;7.43;;;6.35;;
19863;SDS011;10094;48.820;9.226;2023-09-08T17:47:26;9.25;;;6.15;;
19863;SDS011;10094;48.820;9.226;2023-09-08T17:54:07;11.52;;;6.55;;
19863;SDS011;10094;48.820;9.226;2023-09-08T18:00:49;11.73;;;6.95;;
19863;SDS011;10094;48.820;9.226;2023-09-08T18:07:31;10.25;;;6.32;;
19863;SDS011;10094;48.820;9.226;2023-09-08T18:14:13;7.22;;;6.43;;
19863;SDS011;10094;48.820;9.226;2023-09-08T18:20:54;7.63;;;5.97;;
19863;SDS011;10094;48.820;9.226;2023-09-08T18:27:36;10.02;;;6.20;;
19863;SDS011;10094;48.820;9.226;2023-09-08T18:34:19;9.23;;;6.93;;
19863;SDS011;10094;48.820;9.226;2023-09-08T18:41:00;11.85;;;7.40;;
19863;SDS011;10094;48.820;9.226;2023-09-08T18:47:42;13.52;;;7.38;;
19863;SDS011;10094;48.820;9.226;2023-09-08T18:54:24;8.23;;;7.32;;
19863;SDS011;10094;48.820;9.226;2023-09-08T19:01:10;10.63;;;8.23;;
19863;SDS011;10094;48.820;9.226;2023-09-08T19:07:52;12.15;;;8.52;;
19863;SDS011;10094;48.820;9.226;2023-09-08T19:14:34;10.27;;;9.27;;
19863;SDS011;10094;48.820;9.226;2023-09-08T19:21:15;10.38;;;9.00;;
19863;SDS011;10094;48.820;9.226;2023-09-08T19:27:57;13.32;;;9.30;;
19863;SDS011;10094;48.820;9.226;2023-09-08T19:34:39;9.63;;;8.60;;
19863;SDS011;10094;48.820;9.226;2023-09-08T19:41:21;10.90;;;7.18;;
19863;SDS011;10094;48.820;9.226;2023-09-08T19:48:05;15.55;;;11.50;;
19863;SDS011;10094;48.820;9.226;2023-09-08T19:54:47;12.10;;;10.90;;
19863;SDS011;10094;48.820;9.226;2023-09-08T20:01:29;12.30;;;11.07;;
19863;SDS011;10094;48.820;9.226;2023-09-08T20:08:12;13.98;;;11.30;;
19863;SDS011;10094;48.820;9.226;2023-09-08T20:14:53;9.50;;;8.55;;
19863;SDS011;10094;48.820;9.226;2023-09-08T20:21:35;12.00;;;10.55;;
19863;SDS011;10094;48.820;9.226;2023-09-08T20:28:17;14.35;;;11.10;;
19863;SDS011;10094;48.820;9.226;2023-09-08T20:34:58;12.10;;;9.48;;
19863;SDS011;10094;48.820;9.226;2023-09-08T20:41:40;9.70;;;8.60;;
19863;SDS011;10094;48.820;9.226;2023-09-08T20:48:22;10.75;;;9.65;;
19863;SDS011;10094;48.820;9.226;2023-09-08T20:55:04;9.68;;;8.73;;
19863;SDS011;10094;48.820;9.226;2023-09-08T21:01:46;9.48;;;8.45;;
19863;SDS011;10094;48.820;9.226;2023-09-08T21:08:28;9.50;;;8.38;;
19863;SDS011;10094;48.820;9.226;2023-09-08T21:15:11;9.65;;;8.75;;
19863;SDS011;10094;48.820;9.226;2023-09-08T21:21:53;13.95;;;8.95;;
19863;SDS011;10094;48.820;9.226;2023-09-08T21:28:35;10.45;;;9.27;;
19863;SDS011;10094;48.820;9.226;2023-09-08T21:35:16;12.98;;;9.98;;
19863;SDS011;10094;48.820;9.226;2023-09-08T21:41:58;12.00;;;9.95;;
19863;SDS011;10094;48.820;9.226;2023-09-08T21:48:42;14.15;;;11.70;;
19863;SDS011;10094;48.820;9.226;2023-09-08T21:55:23;15.45;;;12.15;;
19863;SDS011;10094;48.820;9.226;2023-09-08T22:02:05;13.98;;;11.90;;
19863;SDS011;10094;48.820;9.226;2023-09-08T22:08:47;14.77;;;11.27;;
19863;SDS011;10094;48.820;9.226;2023-09-08T22:15:29;13.13;;;11.15;;
19863;SDS011;10094;48.820;9.226;2023-09-08T22:22:11;14.55;;;11.57;;
19863;SDS011;10094;48.820;9.226;2023-09-08T22:28:53;14.52;;;12.20;;
19863;SDS011;10094;48.820;9.226;2023-09-08T22:35:35;12.85;;;10.57;;
19863;SDS011;10094;48.820;9.226;2023-09-08T22:42:17;14.88;;;12.00;;
19863;SDS011;10094;48.820;9.226;2023-09-08T22:48:59;14.40;;;12.95;;
19863;SDS011;10094;48.820;9.226;2023-09-08T22:55:42;15.18;;;12.40;;
19863;SDS011;10094;48.820;9.226;2023-09-08T23:02:24;13.40;;;12.07;;
19863;SDS011;10094;48.820;9.226;2023-09-08T23:09:07;15.45;;;13.30;;
19863;SDS011;10094;48.820;9.226;2023-09-08T23:15:49;16.00;;;13.55;;
19863;SDS011;10094;48.820;9.226;2023-09-08T23:22:33;15.75;;;12.90;;
19863;SDS011;10094;48.820;9.226;2023-09-08T23:29:15;15.25;;;13.40;;
19863;SDS011;10094;48.820;9.226;2023-09-08T23:35:57;16.75;;;12.50;;
19863;SDS011;10094;48.820;9.226;2023-09-08T23:42:39;13.52;;;12.13;;
19863;SDS011;10094;48.820;9.226;2023-09-08T23:49:21;14.07;;;12.40;;
19863;SDS011;10094;48.820;9.226;2023-09-08T23:56:02;15.20;;;13.30;;
